createdAt,value
2018-06-27T00:01:25.024Z,5.57
2018-06-27T00:03:52.882Z,6.57
2018-06-27T00:06:20.725Z,7.00
2018-06-27T00:08:48.539Z,7.40
2018-06-27T00:11:16.402Z,7.80
2018-06-27T00:13:44.262Z,6.53
2018-06-27T00:16:12.164Z,6.87
2018-06-27T00:18:40.103Z,7.03
2018-06-27T00:21:08.003Z,6.20
2018-06-27T00:23:35.895Z,7.30
2018-06-27T00:26:03.850Z,7.63
2018-06-27T00:28:31.725Z,7.80
2018-06-27T00:30:59.613Z,9.60
2018-06-27T00:33:27.498Z,10.20
2018-06-27T00:35:55.425Z,9.60
2018-06-27T00:38:23.317Z,10.03
2018-06-27T00:40:51.259Z,9.67
2018-06-27T00:43:19.150Z,10.23
2018-06-27T00:45:47.062Z,12.20
2018-06-27T00:48:14.923Z,9.63
2018-06-27T00:50:42.772Z,9.13
2018-06-27T00:53:10.682Z,10.37
2018-06-27T00:55:38.598Z,10.83
2018-06-27T00:58:06.709Z,10.13
2018-06-27T01:00:34.777Z,12.40
2018-06-27T01:03:02.719Z,10.87
2018-06-27T01:05:30.633Z,10.23
2018-06-27T01:07:58.522Z,11.40
2018-06-27T01:10:26.346Z,12.00
2018-06-27T01:12:54.234Z,11.87
2018-06-27T01:15:22.121Z,11.67
2018-06-27T01:17:56.424Z,13.60
2018-06-27T01:20:24.563Z,14.00
2018-06-27T01:22:52.424Z,13.30
2018-06-27T01:25:20.871Z,13.87
2018-06-27T01:27:48.998Z,14.00
2018-06-27T01:30:17.058Z,11.50
2018-06-27T01:32:44.891Z,9.20
2018-06-27T01:35:13.213Z,8.20
2018-06-27T01:37:41.138Z,7.20
2018-06-27T01:40:09.004Z,8.60
2018-06-27T01:42:36.927Z,9.20
2018-06-27T01:45:04.867Z,7.77
2018-06-27T01:47:32.762Z,7.77
2018-06-27T01:50:00.693Z,8.33
2018-06-27T01:52:28.610Z,7.67
2018-06-27T01:54:56.469Z,9.67
2018-06-27T01:57:24.336Z,7.47
2018-06-27T01:59:52.204Z,7.37
2018-06-27T02:02:20.125Z,7.27
2018-06-27T02:04:48.063Z,7.60
2018-06-27T02:07:15.946Z,7.23
2018-06-27T02:09:43.875Z,8.40
2018-06-27T02:12:11.695Z,6.17
2018-06-27T02:14:39.600Z,7.40
2018-06-27T02:17:07.495Z,8.07
2018-06-27T02:19:35.403Z,6.40
2018-06-27T02:22:03.326Z,6.93
2018-06-27T02:24:31.246Z,9.00
2018-06-27T02:26:59.157Z,8.27
2018-06-27T02:29:27.050Z,11.03
2018-06-27T02:31:55.012Z,14.07
2018-06-27T02:34:22.895Z,13.30
2018-06-27T02:36:50.743Z,13.83
2018-06-27T02:39:18.614Z,13.70
2018-06-27T02:41:46.517Z,16.57
2018-06-27T02:44:14.428Z,13.87
2018-06-27T02:46:42.340Z,14.77
2018-06-27T02:49:10.214Z,14.37
2018-06-27T02:51:38.105Z,16.17
2018-06-27T02:54:06.024Z,15.43
2018-06-27T02:56:33.934Z,14.30
2018-06-27T02:59:01.823Z,13.77
2018-06-27T03:01:29.720Z,14.87
2018-06-27T03:03:57.636Z,15.27
2018-06-27T03:06:25.545Z,15.30
2018-06-27T03:08:53.461Z,15.47
2018-06-27T03:11:21.357Z,15.87
2018-06-27T03:13:49.259Z,13.93
2018-06-27T03:16:17.178Z,14.47
2018-06-27T03:18:52.184Z,14.57
2018-06-27T03:21:20.472Z,16.47
2018-06-27T03:23:48.425Z,16.47
2018-06-27T03:26:16.299Z,16.60
2018-06-27T03:28:44.205Z,17.30
2018-06-27T03:31:12.089Z,15.27
2018-06-27T03:33:39.977Z,17.87
2018-06-27T03:36:07.827Z,17.87
2018-06-27T03:38:35.835Z,18.73
2018-06-27T03:41:03.781Z,17.83
2018-06-27T03:43:31.635Z,19.07
2018-06-27T03:45:59.579Z,17.53
2018-06-27T03:48:27.467Z,16.13
2018-06-27T03:50:55.387Z,16.43
2018-06-27T03:53:23.278Z,16.27
2018-06-27T03:55:51.207Z,17.00
2018-06-27T03:58:19.138Z,19.07
2018-06-27T04:00:46.993Z,17.03
2018-06-27T04:03:14.827Z,17.50
2018-06-27T04:05:42.679Z,21.53
2018-06-27T04:08:10.544Z,17.00
2018-06-27T04:10:38.422Z,16.73
2018-06-27T04:13:06.481Z,21.07
2018-06-27T04:15:36.695Z,17.70
2018-06-27T04:18:04.863Z,17.67
2018-06-27T04:20:32.708Z,15.40
2018-06-27T04:23:00.673Z,14.97
2018-06-27T04:25:28.611Z,15.30
2018-06-27T04:27:56.497Z,15.07
2018-06-27T04:30:24.360Z,17.10
2018-06-27T04:32:52.232Z,16.87
2018-06-27T04:35:20.178Z,16.10
2018-06-27T04:37:48.044Z,14.93
2018-06-27T04:40:15.980Z,14.67
2018-06-27T04:42:43.866Z,15.70
2018-06-27T04:45:11.774Z,15.37
2018-06-27T04:47:39.703Z,14.10
2018-06-27T04:50:07.635Z,15.60
2018-06-27T04:52:35.558Z,15.50
2018-06-27T04:55:03.507Z,14.43
2018-06-27T04:57:31.342Z,18.73
2018-06-27T04:59:59.415Z,14.23
2018-06-27T05:02:27.278Z,13.40
2018-06-27T05:04:55.143Z,14.27
2018-06-27T05:07:23.028Z,14.87
2018-06-27T05:09:50.923Z,14.90
2018-06-27T05:12:18.819Z,12.70
2018-06-27T05:14:46.713Z,12.00
2018-06-27T05:17:14.564Z,11.27
2018-06-27T05:19:43.798Z,11.23
2018-06-27T05:22:12.349Z,12.07
2018-06-27T05:24:40.227Z,12.03
2018-06-27T05:27:08.107Z,12.83
2018-06-27T05:29:35.996Z,14.70
2018-06-27T05:32:03.980Z,13.83
2018-06-27T05:34:31.982Z,14.67
2018-06-27T05:36:59.820Z,14.30
2018-06-27T05:39:27.709Z,14.40
2018-06-27T05:41:55.583Z,13.53
2018-06-27T05:44:23.514Z,13.47
2018-06-27T05:46:51.377Z,14.60
2018-06-27T05:49:19.231Z,14.47
2018-06-27T05:51:47.094Z,13.87
2018-06-27T05:54:14.942Z,14.40
2018-06-27T05:56:42.819Z,13.63
2018-06-27T05:59:10.662Z,12.83
2018-06-27T06:01:38.531Z,12.67
2018-06-27T06:04:06.398Z,10.43
2018-06-27T06:06:34.336Z,9.73
2018-06-27T06:09:02.315Z,9.07
2018-06-27T06:11:30.210Z,6.93
2018-06-27T06:13:58.122Z,8.40
2018-06-27T06:16:25.997Z,7.30
2018-06-27T06:18:53.928Z,7.00
2018-06-27T06:21:21.783Z,7.33
2018-06-27T06:23:49.684Z,6.70
2018-06-27T06:26:17.561Z,5.80
2018-06-27T06:28:45.427Z,5.63
2018-06-27T06:31:13.288Z,5.87
2018-06-27T06:33:41.121Z,6.87
2018-06-27T06:36:08.965Z,6.80
2018-06-27T06:38:36.834Z,6.77
2018-06-27T06:41:05.185Z,6.10
2018-06-27T06:43:33.055Z,6.53
2018-06-27T06:46:00.919Z,5.80
2018-06-27T06:48:29.814Z,5.67
2018-06-27T06:50:57.746Z,5.43
2018-06-27T06:53:25.635Z,5.70
2018-06-27T06:55:53.611Z,4.90
2018-06-27T06:58:21.492Z,5.10
2018-06-27T07:00:49.367Z,4.83
2018-06-27T07:03:17.268Z,4.80
2018-06-27T07:05:45.204Z,5.10
2018-06-27T07:08:13.034Z,4.20
2018-06-27T07:10:40.904Z,4.20
2018-06-27T07:13:08.800Z,4.10
2018-06-27T07:15:36.688Z,4.10
2018-06-27T07:18:04.969Z,3.90
2018-06-27T07:20:33.194Z,4.47
2018-06-27T07:23:01.047Z,5.10
2018-06-27T07:25:28.935Z,5.23
2018-06-27T07:27:56.864Z,5.67
2018-06-27T07:30:24.745Z,5.73
2018-06-27T07:32:53.061Z,6.30
2018-06-27T07:35:20.913Z,5.90
2018-06-27T07:37:48.853Z,5.63
2018-06-27T07:40:16.758Z,5.80
2018-06-27T07:42:44.681Z,6.40
2018-06-27T07:45:12.628Z,5.27
2018-06-27T07:47:40.475Z,5.87
2018-06-27T07:50:08.428Z,6.13
2018-06-27T07:52:36.304Z,6.07
2018-06-27T07:55:04.364Z,6.10
2018-06-27T07:57:32.246Z,5.80
2018-06-27T08:00:00.141Z,5.17
2018-06-27T08:02:28.060Z,5.90
2018-06-27T08:04:55.960Z,5.27
2018-06-27T08:07:23.887Z,4.60
2018-06-27T08:09:51.784Z,5.10
2018-06-27T08:12:19.732Z,4.90
2018-06-27T08:14:47.541Z,4.93
2018-06-27T08:17:15.730Z,3.80
2018-06-27T08:19:43.655Z,4.10
2018-06-27T08:22:11.548Z,4.30
2018-06-27T08:24:39.415Z,4.50
2018-06-27T08:27:07.364Z,4.00
2018-06-27T08:29:35.402Z,5.33
2018-06-27T08:32:03.462Z,5.00
2018-06-27T08:34:31.372Z,6.10
2018-06-27T08:39:32.648Z,9.47
2018-06-27T08:42:00.518Z,9.97
2018-06-27T08:44:28.572Z,10.80
2018-06-27T08:46:56.361Z,10.53
2018-06-27T08:49:24.274Z,11.13
2018-06-27T08:51:52.131Z,10.73
2018-06-27T08:54:20.011Z,11.13
2018-06-27T08:56:47.989Z,10.80
2018-06-27T08:59:15.880Z,11.40
2018-06-27T09:01:43.774Z,11.47
2018-06-27T09:04:11.744Z,10.83
2018-06-27T09:06:39.652Z,11.13
2018-06-27T09:09:09.873Z,11.93
2018-06-27T09:18:27.843Z,11.20
2018-06-27T09:20:55.794Z,10.37
2018-06-27T09:23:23.700Z,10.87
2018-06-27T09:25:51.559Z,13.43
2018-06-27T09:28:19.472Z,10.27
2018-06-27T09:30:47.419Z,10.57
2018-06-27T09:33:15.265Z,8.97
2018-06-27T09:35:43.173Z,8.53
2018-06-27T09:38:11.039Z,8.00
2018-06-27T09:40:38.904Z,8.43
2018-06-27T09:43:06.850Z,8.00
2018-06-27T09:45:34.748Z,7.77
2018-06-27T09:48:02.665Z,7.50
2018-06-27T09:50:30.629Z,7.80
2018-06-27T09:52:58.480Z,7.77
2018-06-27T09:55:26.362Z,7.10
2018-06-27T09:57:54.377Z,6.60
2018-06-27T10:00:27.698Z,6.10
2018-06-27T10:02:55.620Z,6.43
2018-06-27T10:05:23.588Z,6.83
2018-06-27T10:07:51.474Z,6.30
2018-06-27T10:10:19.354Z,7.20
2018-06-27T10:12:47.251Z,6.60
2018-06-27T10:15:15.152Z,6.40
2018-06-27T10:17:43.019Z,6.60
2018-06-27T10:20:10.891Z,6.00
2018-06-27T10:22:38.780Z,6.77
2018-06-27T10:25:06.760Z,6.90
2018-06-27T10:27:34.582Z,6.97
2018-06-27T10:30:02.644Z,7.77
2018-06-27T10:32:30.538Z,9.23
2018-06-27T10:34:58.391Z,9.23
2018-06-27T10:37:26.262Z,9.27
2018-06-27T10:39:54.151Z,8.03
2018-06-27T10:42:22.022Z,8.70
2018-06-27T10:44:49.911Z,7.80
2018-06-27T10:47:17.811Z,8.60
2018-06-27T10:49:45.688Z,8.37
2018-06-27T10:52:13.553Z,7.03
2018-06-27T10:54:56.921Z,7.70
2018-06-27T10:57:24.861Z,7.73
2018-06-27T10:59:53.415Z,7.00
2018-06-27T11:02:21.892Z,6.60
2018-06-27T11:04:49.750Z,6.77
2018-06-27T11:07:17.721Z,6.70
2018-06-27T11:09:45.620Z,7.30
2018-06-27T11:12:13.515Z,7.47
2018-06-27T11:14:41.372Z,7.60
2018-06-27T11:17:09.247Z,7.77
2018-06-27T11:19:37.359Z,8.67
2018-06-27T11:22:05.274Z,7.13
2018-06-27T11:24:33.934Z,6.07
2018-06-27T11:27:01.843Z,6.60
2018-06-27T11:29:29.720Z,9.13
2018-06-27T11:31:57.602Z,7.20
2018-06-27T11:34:25.471Z,7.63
2018-06-27T11:36:53.362Z,7.60
2018-06-27T11:39:21.287Z,6.13
2018-06-27T11:41:49.232Z,6.70
2018-06-27T11:44:17.151Z,6.00
2018-06-27T11:46:45.009Z,5.50
2018-06-27T11:49:12.912Z,5.60
2018-06-27T11:51:40.824Z,4.90
2018-06-27T11:54:08.765Z,4.47
2018-06-27T11:56:36.615Z,4.43
2018-06-27T11:59:04.575Z,4.50
2018-06-27T12:01:32.469Z,4.00
2018-06-27T12:04:00.394Z,5.13
2018-06-27T12:06:28.351Z,3.93
2018-06-27T12:08:56.221Z,4.30
2018-06-27T12:11:24.130Z,4.50
2018-06-27T12:13:52.013Z,4.67
2018-06-27T12:16:20.202Z,5.17
2018-06-27T12:18:48.403Z,4.50
2018-06-27T12:21:16.334Z,4.80
2018-06-27T12:23:44.235Z,4.70
2018-06-27T12:26:12.197Z,4.63
2018-06-27T12:28:40.050Z,5.10
2018-06-27T12:31:07.981Z,5.00
2018-06-27T12:33:35.991Z,4.13
2018-06-27T12:36:03.961Z,4.10
2018-06-27T12:38:31.874Z,4.40
2018-06-27T12:40:59.821Z,4.60
2018-06-27T12:43:27.726Z,4.63
2018-06-27T12:45:55.734Z,4.13
2018-06-27T12:48:23.622Z,4.17
2018-06-27T12:50:51.568Z,5.03
2018-06-27T12:53:19.432Z,4.13
2018-06-27T12:55:47.323Z,5.00
2018-06-27T12:58:15.214Z,4.60
2018-06-27T13:00:43.174Z,4.97
2018-06-27T13:03:11.019Z,4.67
2018-06-27T13:05:39.017Z,4.50
2018-06-27T13:08:06.910Z,4.57
2018-06-27T13:10:34.918Z,4.83
2018-06-27T13:13:03.345Z,4.50
2018-06-27T13:15:31.274Z,4.40
2018-06-27T13:17:59.315Z,4.63
2018-06-27T13:20:27.323Z,4.90
2018-06-27T13:22:55.335Z,4.87
2018-06-27T13:25:23.196Z,4.80
2018-06-27T13:27:51.008Z,5.03
2018-06-27T13:30:18.834Z,5.10
2018-06-27T13:32:46.917Z,5.33
2018-06-27T13:35:14.820Z,5.17
2018-06-27T13:37:42.737Z,5.83
2018-06-27T13:40:10.762Z,5.40
2018-06-27T13:42:38.603Z,5.10
2018-06-27T13:45:06.467Z,5.67
2018-06-27T13:47:34.387Z,5.57
2018-06-27T13:50:02.276Z,5.57
2018-06-27T13:52:30.219Z,5.67
2018-06-27T13:54:58.977Z,5.40
2018-06-27T13:57:28.021Z,5.40
2018-06-27T13:59:56.966Z,6.07
2018-06-27T14:02:24.882Z,6.17
2018-06-27T14:04:52.737Z,6.17
2018-06-27T14:07:20.740Z,6.47
2018-06-27T14:09:48.629Z,6.70
2018-06-27T14:12:16.523Z,7.00
2018-06-27T14:14:44.411Z,6.33
2018-06-27T14:17:12.268Z,6.10
2018-06-27T14:19:40.127Z,6.83
2018-06-27T14:22:08.739Z,7.73
2018-06-27T14:24:37.363Z,7.57
2018-06-27T14:27:05.288Z,6.23
2018-06-27T14:29:33.162Z,5.63
2018-06-27T14:32:01.023Z,6.23
2018-06-27T14:34:28.866Z,7.30
2018-06-27T14:36:56.722Z,6.57
2018-06-27T14:39:24.582Z,7.07
2018-06-27T14:41:52.466Z,7.20
2018-06-27T14:44:20.375Z,7.33
2018-06-27T14:46:48.261Z,7.07
2018-06-27T14:49:16.168Z,7.70
2018-06-27T14:51:44.072Z,6.87
2018-06-27T14:54:11.983Z,7.80
2018-06-27T14:56:39.898Z,7.80
2018-06-27T14:59:07.840Z,7.90
2018-06-27T15:01:36.159Z,7.40
2018-06-27T15:04:04.101Z,8.43
2018-06-27T15:06:32.128Z,8.67
2018-06-27T15:09:00.039Z,8.40
2018-06-27T15:11:28.430Z,8.33
2018-06-27T15:13:56.536Z,7.90
2018-06-27T15:16:24.595Z,8.70
2018-06-27T15:18:53.026Z,8.73
2018-06-27T15:23:07.609Z,8.60
2018-06-27T15:25:35.487Z,8.97
2018-06-27T15:28:03.385Z,9.53
2018-06-27T15:30:31.642Z,8.07
2018-06-27T15:32:59.621Z,9.30
2018-06-27T15:35:27.594Z,8.03
2018-06-27T15:37:55.442Z,9.47
2018-06-27T15:40:23.326Z,9.63
2018-06-27T15:42:51.206Z,11.77
2018-06-27T15:45:19.083Z,10.87
2018-06-27T15:47:47.023Z,10.87
2018-06-27T15:50:14.905Z,13.17
2018-06-27T15:52:42.782Z,12.50
2018-06-27T15:55:10.668Z,23.63
2018-06-27T15:57:38.616Z,16.33
2018-06-27T16:00:06.604Z,12.80
2018-06-27T16:02:34.566Z,12.60
2018-06-27T16:05:02.606Z,13.10
2018-06-27T16:07:30.633Z,14.80
2018-06-27T16:09:58.735Z,13.43
2018-06-27T16:12:26.884Z,12.83
2018-06-27T16:14:54.891Z,12.17
2018-06-27T16:17:23.095Z,11.90
2018-06-27T16:19:50.904Z,13.50
2018-06-27T16:22:18.818Z,14.23
2018-06-27T16:24:46.822Z,12.57
2018-06-27T16:27:14.892Z,13.30
2018-06-27T16:29:43.327Z,12.43
2018-06-27T16:32:11.254Z,11.40
2018-06-27T16:34:39.340Z,13.13
2018-06-27T16:37:07.397Z,12.23
2018-06-27T16:39:35.393Z,14.73
2018-06-27T16:42:03.366Z,24.67
2018-06-27T16:44:31.404Z,14.30
2018-06-27T16:46:59.407Z,19.10
2018-06-27T16:49:27.295Z,16.03
2018-06-27T16:51:55.343Z,13.67
2018-06-27T16:54:23.433Z,13.43
2018-06-27T16:56:51.343Z,13.10
2018-06-27T16:59:19.314Z,13.87
2018-06-27T17:01:47.319Z,16.07
2018-06-27T17:04:15.480Z,16.13
2018-06-27T17:06:43.446Z,18.97
2018-06-27T17:09:11.308Z,17.40
2018-06-27T17:11:39.739Z,18.47
2018-06-27T17:14:08.434Z,17.37
2018-06-27T17:16:36.435Z,17.60
2018-06-27T17:19:04.553Z,19.07
2018-06-27T17:21:32.663Z,19.80
2018-06-27T17:24:00.688Z,23.37
2018-06-27T17:26:28.691Z,23.27
2018-06-27T17:28:56.709Z,23.57
2018-06-27T17:31:24.816Z,25.00
2018-06-27T17:33:53.023Z,22.87
2018-06-27T17:36:22.691Z,27.53
2018-06-27T17:38:50.813Z,26.70
2018-06-27T17:41:18.974Z,28.53
2018-06-27T17:43:47.104Z,27.23
2018-06-27T17:46:15.196Z,28.20
2018-06-27T17:48:43.818Z,26.03
2018-06-27T17:51:11.951Z,29.60
2018-06-27T17:53:40.878Z,24.43
2018-06-27T17:56:08.881Z,21.60
2018-06-27T17:58:36.943Z,23.40
2018-06-27T18:01:04.902Z,23.67
2018-06-27T18:03:32.969Z,23.93
2018-06-27T18:06:01.031Z,27.63
2018-06-27T18:08:29.328Z,26.97
2018-06-27T18:10:57.295Z,29.73
2018-06-27T18:13:25.291Z,27.07
2018-06-27T18:15:53.367Z,25.53
2018-06-27T18:18:21.381Z,23.87
2018-06-27T18:20:49.339Z,24.67
2018-06-27T18:23:17.355Z,20.17
2018-06-27T18:25:45.321Z,21.03
2018-06-27T18:28:13.383Z,19.07
2018-06-27T18:30:41.339Z,20.43
2018-06-27T18:33:09.398Z,18.97
2018-06-27T18:35:37.449Z,19.23
2018-06-27T18:38:05.647Z,21.83
2018-06-27T18:40:33.590Z,20.70
2018-06-27T18:43:01.560Z,21.50
2018-06-27T18:45:29.529Z,22.87
2018-06-27T18:47:57.586Z,24.63
2018-06-27T18:50:25.562Z,21.47
2018-06-27T18:52:53.618Z,22.33
2018-06-27T18:55:21.656Z,20.70
2018-06-27T18:57:49.711Z,21.83
2018-06-27T19:00:17.739Z,17.70
2018-06-27T19:02:45.882Z,19.30
2018-06-27T19:05:13.818Z,24.27
2018-06-27T19:07:41.833Z,24.37
2018-06-27T19:10:09.853Z,22.23
2018-06-27T19:12:38.201Z,24.83
2018-06-27T19:15:06.322Z,20.17
2018-06-27T19:17:34.309Z,19.03
2018-06-27T19:20:02.285Z,20.13
2018-06-27T19:22:30.329Z,17.23
2018-06-27T19:24:58.355Z,19.70
2018-06-27T19:27:26.253Z,18.43
2018-06-27T19:29:54.193Z,18.13
2018-06-27T19:32:22.200Z,16.70
2018-06-27T19:34:50.188Z,17.73
2018-06-27T19:37:18.162Z,16.30
2018-06-27T19:39:46.140Z,19.47
2018-06-27T19:42:14.187Z,19.50
2018-06-27T19:44:42.114Z,19.57
2018-06-27T19:47:10.110Z,23.07
2018-06-27T19:49:38.098Z,20.07
2018-06-27T19:52:06.067Z,21.40
2018-06-27T19:54:34.161Z,20.50
2018-06-27T19:57:02.114Z,16.27
2018-06-27T19:59:30.011Z,16.53
2018-06-27T20:01:58.024Z,21.30
2018-06-27T20:04:26.043Z,20.53
2018-06-27T20:06:54.047Z,21.60
2018-06-27T20:09:21.874Z,20.70
2018-06-27T20:11:49.834Z,22.33
2018-06-27T20:14:17.756Z,22.20
2018-06-27T20:16:45.743Z,21.37
2018-06-27T20:19:13.839Z,22.80
2018-06-27T20:21:42.545Z,21.97
2018-06-27T20:24:10.540Z,22.07
2018-06-27T20:26:38.553Z,21.43
2018-06-27T20:29:06.871Z,24.40
2018-06-27T20:31:34.869Z,22.03
2018-06-27T20:34:02.949Z,19.80
2018-06-27T20:36:30.918Z,22.30
2018-06-27T20:38:58.846Z,23.20
2018-06-27T20:41:27.014Z,22.57
2018-06-27T20:43:54.934Z,22.97
2018-06-27T20:46:22.854Z,22.70
2018-06-27T20:48:50.807Z,22.87
2018-06-27T20:51:18.852Z,17.77
2018-06-27T20:53:46.903Z,19.13
2018-06-27T20:56:14.894Z,17.37
2018-06-27T20:58:42.820Z,18.53
2018-06-27T21:01:10.975Z,19.73
2018-06-27T21:03:38.918Z,16.63
2018-06-27T21:06:06.879Z,17.50
2018-06-27T21:08:34.836Z,14.13
2018-06-27T21:11:02.934Z,17.83
2018-06-27T21:13:30.803Z,15.03
2018-06-27T21:15:58.786Z,14.80
2018-06-27T21:18:26.782Z,13.63
2018-06-27T21:20:54.793Z,14.07
2018-06-27T21:23:22.767Z,15.30
2018-06-27T21:25:50.814Z,15.03
2018-06-27T21:28:18.735Z,16.80
2018-06-27T21:30:46.797Z,12.00
2018-06-27T21:33:14.699Z,12.70
2018-06-27T21:35:42.613Z,15.73
2018-06-27T21:38:10.496Z,15.63
2018-06-27T21:40:38.413Z,16.63
2018-06-27T21:43:06.313Z,15.70
2018-06-27T21:45:34.154Z,16.50
2018-06-27T21:48:02.053Z,15.47
2018-06-27T21:50:29.928Z,15.77
2018-06-27T21:52:57.788Z,15.00
2018-06-27T21:55:25.631Z,14.50
2018-06-27T21:57:53.476Z,14.77
2018-06-27T22:00:23.403Z,14.87
2018-06-27T22:02:51.607Z,14.30
2018-06-27T22:05:19.557Z,14.50
2018-06-27T22:07:47.576Z,13.80
2018-06-27T22:10:15.508Z,14.90
2018-06-27T22:12:43.493Z,12.80
2018-06-27T22:15:11.479Z,13.00
2018-06-27T22:17:39.462Z,14.47
2018-06-27T22:20:07.464Z,14.47
2018-06-27T22:22:35.408Z,14.00
2018-06-27T22:25:03.442Z,14.77
2018-06-27T22:27:31.395Z,13.90
2018-06-27T22:29:59.300Z,14.47
2018-06-27T22:32:27.258Z,14.03
2018-06-27T22:34:55.179Z,13.10
2018-06-27T22:37:23.070Z,12.23
2018-06-27T22:39:51.026Z,12.73
2018-06-27T22:42:19.034Z,14.00
2018-06-27T22:44:46.955Z,14.90
2018-06-27T22:47:14.900Z,17.17
2018-06-27T22:49:42.818Z,19.43
2018-06-27T22:52:10.724Z,19.57
2018-06-27T22:54:38.666Z,20.57
2018-06-27T22:57:06.604Z,17.17
2018-06-27T22:59:34.595Z,20.30
2018-06-27T23:02:02.532Z,20.70
2018-06-27T23:04:30.554Z,20.60
2018-06-27T23:06:58.482Z,17.73
2018-06-27T23:09:26.659Z,17.80
2018-06-27T23:11:54.675Z,18.80
2018-06-27T23:14:22.709Z,20.07
2018-06-27T23:16:50.686Z,19.17
2018-06-27T23:19:18.823Z,22.30
2018-06-27T23:21:46.759Z,22.23
2018-06-27T23:24:14.972Z,23.20
2018-06-27T23:26:49.424Z,24.17
2018-06-27T23:29:17.494Z,21.27
2018-06-27T23:31:45.854Z,22.00
2018-06-27T23:34:13.885Z,23.30
2018-06-27T23:36:42.168Z,23.03
2018-06-27T23:39:11.907Z,20.43
2018-06-27T23:41:40.411Z,22.57
2018-06-27T23:44:08.425Z,21.07
2018-06-27T23:46:36.448Z,22.47
2018-06-27T23:49:04.720Z,21.83
2018-06-27T23:51:32.758Z,20.90
2018-06-27T23:54:00.765Z,21.20
2018-06-27T23:56:28.728Z,19.73
2018-06-27T23:58:56.785Z,14.67
